Date,TemperatureHighF,TemperatureAvgF,TemperatureLowF,DewpointHighF,DewpointAvgF,DewpointLowF,HumidityHigh,HumidityAvg,HumidityLow,PressureMaxIn,PressureMinIn,WindSpeedMaxMPH,WindSpeedAvgMPH,GustSpeedMaxMPH,PrecipitationSumIn
2013-1-2,32.7,26.4,13.8,-6.1,-9.7,-18.0,22,20,18,0.00,0.00,6,2,15,0.00
2013-1-3,44.6,35.8,21.9,0.1,-4.7,-13.0,20,17,15,0.00,40.00,13,4,14,0.00
2013-1-4,40.3,36.4,27.9,0.2,-1.4,-4.8,26,19,18,0.00,0.00,26,14,26,0.00
2013-1-6,36.9,36.1,35.4,-1.5,-2.0,-2.6,20,19,19,0.00,40.00,15,11,15,0.00
2013-1-7,39.4,34.7,27.3,0.1,-2.5,-5.6,23,20,16,0.00,40.00,18,3,19,0.00
2013-1-8,34.5,32.5,29.3,3.5,-4.2,-6.4,31,20,17,0.00,0.00,20,13,23,0.00
2013-1-9,47.3,45.0,41.5,4.6,3.7,1.8,21,18,17,0.00,0.00,23,13,23,0.00
2013-1-10,15.4,13.5,11.3,1.8,-0.4,-2.5,54,53,53,0.00,0.00,23,14,23,0.00
2013-1-11,8.1,6.8,4.3,-5.5,-6.7,-9.1,53,53,53,0.00,0.00,15,8,20,0.00
2013-1-13,19.9,12.9,5.5,-8.6,-9.7,-10.5,49,37,25,0.00,40.00,8,5,8,0.00
2013-1-14,24.4,21.7,17.4,-0.5,-6.9,-12.9,33,27,22,0.00,0.00,24,14,25,0.00
2013-1-15,34.5,32.2,26.8,6.2,3.6,0.2,32,29,25,0.00,0.00,31,22,32,0.00
2013-1-16,41.9,39.9,36.1,1.5,0.1,-2.1,19,18,18,0.00,0.00,19,13,32,0.00
2013-1-17,46.8,44.3,35.6,1.1,-0.1,-2.6,19,15,14,0.00,0.00,33,15,40,0.00
2013-1-18,45.5,44.0,42.1,0.6,-0.6,-1.6,16,15,15,0.00,0.00,35,24,45,0.08
2013-1-22,46.8,37.5,29.1,3.2,-2.9,-9.1,31,18,14,0.00,40.00,11,3,11,0.00
2013-1-23,16.7,13.9,11.1,-0.1,-1.7,-2.3,54,49,44,0.00,0.00,14,6,14,0.00
2013-1-24,41.0,39.2,35.1,-0.3,-2.6,-5.3,19,16,16,0.00,0.00,33,18,33,0.00
2013-1-25,48.2,44.6,37.9,5.3,3.1,-0.6,21,18,16,0.00,0.00,23,10,25,0.00
2013-1-27,35.8,34.9,33.8,-4.8,-5.5,-6.4,17,17,17,0.00,0.00,15,11,15,0.00
2013-1-28,33.4,29.4,23.9,-5.5,-7.1,-10.9,24,20,18,0.00,0.00,15,6,17,0.00
2013-1-29,14.5,1.2,-2.7,-3.1,-13.6,-17.3,49,49,44,0.00,0.00,23,8,23,0.00
2013-1-30,36.3,28.9,22.6,1.1,-1.4,-5.6,33,27,22,0.00,0.00,23,12,23,0.00
2013-1-31,40.8,24.7,10.9,0.6,-4.0,-9.7,38,29,18,0.00,0.00,6,2,15,0.00
2013-2-1,41.9,38.5,32.7,1.4,-0.6,-1.2,23,19,16,0.00,40.00,23,14,23,0.00
2013-2-3,42.8,41.7,40.8,-1.2,-1.6,-1.9,16,16,15,0.00,40.00,30,30,30,0.00
2013-2-4,44.1,40.7,37.6,-0.3,-1.9,-4.2,19,16,15,0.00,0.00,46,21,46,0.35
2013-2-5,47.8,43.7,34.5,3.1,0.4,-3.7,22,16,14,0.00,0.00,18,8,20,0.00
2013-2-6,40.5,38.7,33.6,6.9,-1.0,-3.4,32,18,16,0.00,0.00,29,14,34,0.00
2013-2-7,47.7,39.6,22.5,1.6,0.2,-2.3,33,19,14,0.00,0.00,10,3,10,0.00
2013-2-8,47.3,39.2,25.2,1.4,-0.7,-3.7,33,19,14,0.00,0.00,9,4,9,0.00
2013-2-11,35.8,32.7,21.2,0.7,-1.4,-4.1,34,23,19,0.00,0.00,19,12,22,0.00
2013-2-12,39.7,37.5,33.1,1.9,-0.8,-1.7,23,19,18,0.00,0.00,33,16,33,0.00
2013-2-13,42.4,39.5,30.6,4.9,-1.3,-3.8,33,18,16,0.00,0.00,32,20,42,0.00
2013-2-14,36.7,31.4,21.7,-1.6,-3.9,-6.4,32,22,17,0.00,0.00,16,7,28,0.00
2013-2-15,21.7,21.5,21.4,-3.7,-4.1,-5.1,32,32,30,0.00,0.00,6,4,10,0.00
2013-2-19,27.5,25.8,24.1,6.0,3.4,0.7,45,38,31,0.00,0.00,6,4,6,0.00
2013-2-20,28.4,26.3,23.2,7.0,3.8,1.4,43,38,33,0.00,0.00,9,4,10,0.00
2013-2-21,34.3,29.2,13.5,-3.2,-6.6,-9.4,35,21,17,0.00,0.00,13,7,15,0.00
2013-2-22,37.8,35.6,29.8,-0.9,-2.4,-6.3,20,19,17,0.00,0.00,22,10,22,0.00
2013-2-23,34.5,34.4,33.8,-5.8,-5.9,-6.4,17,17,17,0.00,0.00,13,13,13,0.00
2013-2-25,38.5,36.0,29.8,-1.1,-3.4,-6.3,20,18,16,0.00,0.00,17,7,18,0.00
2013-2-26,34.9,31.0,22.3,3.8,-1.5,-4.7,43,25,20,0.00,0.00,13,4,14,0.00
2013-2-27,36.7,34.2,30.9,-2.0,-4.7,-6.6,20,18,17,0.00,0.00,16,10,19,0.00
2013-2-28,37.9,32.4,28.6,-0.9,-3.5,-4.5,23,21,16,0.00,0.00,20,8,20,0.00
2013-3-3,38.1,28.5,19.9,6.8,5.2,3.3,56,40,24,0.00,40.00,17,9,23,0.00
2013-3-5,24.6,19.2,7.2,-0.5,-4.7,-11.1,42,34,24,0.00,0.00,11,5,23,0.00
2013-3-6,25.0,21.7,17.1,12.9,8.9,3.7,60,57,55,0.00,0.00,7,2,11,0.00
2013-3-7,29.3,26.8,24.4,13.1,8.2,2.2,53,45,34,0.00,0.00,10,4,10,0.00
2013-3-8,31.6,22.4,12.6,14.0,8.0,-1.3,58,54,40,0.00,0.00,6,2,7,0.00
2013-3-11,29.1,26.5,24.4,12.4,2.8,-6.0,59,37,23,0.00,0.00,12,7,15,0.00
2013-3-12,43.2,36.1,30.2,10.7,6.8,-0.4,31,29,23,0.00,0.00,8,4,8,0.00
2013-3-13,54.1,52.6,43.2,8.4,7.5,5.6,23,16,15,0.00,0.00,24,12,24,0.00
2013-3-14,43.3,38.9,30.7,11.0,8.1,4.7,41,28,20,0.00,0.00,15,8,15,0.00
2013-3-15,52.3,44.4,35.1,7.2,3.7,0.2,27,19,13,0.00,0.00,30,17,32,0.00
2013-3-18,36.1,34.1,32.7,-4.5,-5.8,-6.4,18,17,17,0.00,0.00,33,22,35,0.00
2013-3-19,42.3,36.6,16.7,4.1,-2.9,-6.7,50,19,16,0.00,0.00,14,5,17,0.00
2013-3-20,60.3,53.0,39.2,10.9,6.2,-3.2,16,15,13,0.00,0.00,13,6,15,0.00
2013-3-21,37.9,35.8,32.5,-3.6,-4.5,-5.9,20,17,16,0.00,0.00,35,23,42,0.00
2013-3-22,23.9,20.6,16.9,-1.9,-5.9,-11.4,40,31,22,0.00,0.00,17,11,24,0.00
2013-3-25,46.6,36.7,21.7,1.0,-3.2,-11.2,33,18,14,0.00,0.00,10,2,10,0.00
2013-3-27,56.1,52.6,49.6,4.4,3.4,2.4,14,13,12,0.00,0.00,15,5,15,0.00
2013-3-28,56.7,54.3,49.1,9.6,8.1,5.3,19,15,15,0.00,0.00,13,3,15,0.00
2013-3-29,55.9,51.5,44.8,11.1,5.1,2.5,25,15,12,0.00,40.00,20,12,23,0.00
2013-4-1,55.2,47.2,28.9,6.3,3.4,-0.4,35,17,13,0.00,0.00,11,5,23,0.00
2013-4-2,65.8,60.0,28.6,13.6,11.4,8.4,42,15,13,0.00,0.00,20,10,20,0.00
2013-4-3,49.3,43.8,37.6,9.3,4.1,-0.3,30,19,16,0.00,0.00,13,6,17,0.00
2013-4-4,52.7,50.3,44.6,7.8,6.1,2.5,17,16,16,0.00,0.00,11,6,13,0.00
2013-4-5,57.6,53.3,43.0,16.3,8.5,5.3,33,17,14,0.00,0.00,25,13,29,0.00
2013-4-6,44.8,43.6,42.8,12.0,8.3,5.3,28,23,20,0.00,40.00,10,9,17,0.00
2013-4-8,24.6,20.0,14.4,7.1,0.5,-3.3,48,42,32,0.00,0.00,11,5,17,0.00
2013-4-9,36.5,34.6,30.6,-0.1,-4.6,-6.4,25,18,17,0.00,0.00,13,7,15,0.00
2013-4-10,55.4,51.3,40.5,8.5,6.9,2.6,21,16,15,0.00,0.00,18,10,22,0.00
2013-4-11,51.6,47.4,36.3,13.9,2.9,-0.1,39,16,14,0.00,0.00,26,16,29,0.00
2013-4-12,36.1,31.7,28.8,10.2,8.8,7.3,43,38,32,0.00,40.00,6,5,29,0.00
2013-4-15,25.2,23.6,21.2,13.1,9.4,5.2,61,54,43,0.00,0.00,15,8,17,0.00
2013-4-16,28.6,26.0,23.2,14.7,6.0,-4.7,62,43,26,0.00,0.00,17,10,17,0.00
2013-4-17,37.0,31.2,27.0,-1.7,-4.7,-7.4,26,21,17,0.00,0.00,9,4,17,0.00
2013-4-18,49.5,48.5,47.7,2.3,1.4,0.8,14,14,14,0.00,40.00,13,10,17,0.00
2013-4-22,36.9,29.5,17.2,0.1,-3.1,-7.2,44,25,17,0.00,0.00,8,6,17,0.00
2013-4-23,45.9,42.1,28.6,0.8,-0.3,-2.8,25,17,15,0.00,0.00,18,13,18,0.00
2013-4-24,54.0,48.0,45.5,4.2,1.6,0.6,15,14,13,0.00,0.00,26,16,26,0.00
2013-4-25,61.2,56.9,43.3,11.6,8.7,-0.9,18,14,14,0.00,0.00,26,17,26,0.00
2013-4-26,65.7,62.0,44.4,13.5,11.5,2.6,18,14,13,0.00,0.00,26,16,28,0.00
2013-4-27,63.1,56.1,51.3,12.6,8.6,6.6,16,15,14,0.00,0.00,28,10,28,0.00
2013-4-28,56.7,50.9,48.7,9.4,6.0,4.6,16,16,15,0.00,0.00,21,12,23,0.00
2013-4-29,56.5,44.4,34.7,18.8,4.8,-3.1,51,20,14,0.00,0.00,44,20,44,0.00
2013-4-30,42.3,31.4,27.1,18.7,-0.4,-5.3,67,27,16,0.00,0.00,15,7,26,0.00
2013-5-1,47.3,41.0,24.4,6.4,-0.3,-4.7,39,18,14,0.00,0.00,22,10,22,0.00
2013-5-2,60.6,49.0,36.5,11.0,3.7,-2.1,19,15,14,0.00,0.00,12,5,14,0.00
2013-5-3,46.8,43.1,39.9,26.6,14.6,0.1,53,37,14,0.00,0.00,20,9,20,0.04
2013-5-4,54.5,40.9,36.0,27.2,14.2,7.1,53,35,15,0.00,0.00,15,7,17,0.04
2013-5-5,63.0,59.3,38.8,17.2,12.0,7.7,41,16,13,0.00,0.00,12,6,12,0.00
2013-5-6,73.8,67.7,43.9,16.2,14.0,8.4,30,13,11,0.00,0.00,12,4,12,0.00
2013-5-7,71.8,62.5,42.8,14.5,12.0,4.5,20,14,11,0.00,0.00,27,13,27,0.00
2013-5-8,71.4,63.9,42.1,16.1,13.4,10.2,31,14,12,0.00,0.00,15,5,15,0.00
2013-5-9,76.3,71.0,45.7,17.0,15.1,6.9,24,12,10,0.00,0.00,15,4,15,0.00
2013-5-10,66.0,56.7,50.4,13.8,9.3,5.6,19,15,13,0.00,0.00,20,7,20,0.00
2013-5-11,77.5,66.1,42.4,16.7,11.7,1.9,18,12,10,0.00,0.00,23,9,23,0.00
2013-5-12,77.0,63.5,56.7,16.3,12.9,8.7,17,14,10,0.00,0.00,6,4,12,0.00
2013-5-13,76.5,72.2,62.1,17.0,15.2,11.1,14,11,10,0.00,0.00,26,11,26,0.00
2013-5-14,72.0,57.0,47.7,14.6,8.2,3.7,19,14,11,0.00,0.00,37,14,37,0.00
2013-5-15,67.8,62.2,42.1,13.8,11.1,-1.6,16,13,12,0.00,0.00,18,4,18,0.00
2013-5-16,63.0,59.4,50.9,11.4,9.5,2.5,14,14,13,0.00,0.00,15,8,15,0.00
2013-5-17,63.0,56.5,42.4,25.1,13.1,8.4,50,19,13,0.00,0.00,17,6,17,0.00
2013-5-18,56.8,51.3,47.3,31.5,24.4,9.7,54,39,15,0.00,0.00,8,6,8,0.08
2013-5-19,54.1,49.0,46.4,26.4,23.9,22.7,39,37,31,0.00,0.00,7,2,7,0.00
2013-5-20,62.2,58.7,48.9,30.3,13.6,9.5,48,17,14,0.00,0.00,18,7,18,0.00
2013-5-21,60.4,60.4,60.4,11.0,11.0,11.0,14,14,14,0.00,40.00,13,13,13,0.00
2013-5-22,60.4,55.5,50.4,28.1,17.4,6.3,35,23,14,0.00,0.00,29,14,29,0.00
2013-5-23,58.5,48.4,41.5,28.1,19.7,13.8,51,33,17,0.00,0.00,22,8,22,0.08
2013-5-29,62.1,60.3,58.5,15.4,12.1,9.8,17,15,14,0.00,0.00,18,7,18,0.00
2013-5-30,61.0,51.4,46.8,26.9,18.8,8.0,37,28,14,0.00,0.00,20,11,20,0.08
2013-5-31,54.7,50.9,46.4,29.5,23.4,14.5,49,34,25,0.00,0.00,23,11,23,0.08
2013-6-1,68.2,55.7,47.3,24.2,19.7,13.1,40,27,12,0.00,0.00,9,5,14,0.00
2013-6-2,68.2,58.4,54.5,14.4,12.6,8.2,20,16,12,0.00,0.00,5,1,8,0.00
2013-6-3,62.6,46.7,44.4,34.4,27.7,11.1,64,48,13,0.00,0.00,23,9,23,0.67
2013-6-4,58.6,55.0,40.3,25.0,10.3,7.1,51,18,14,0.00,0.00,15,6,15,0.08
2013-6-5,77.2,69.3,45.3,20.6,15.0,11.1,37,13,10,0.00,0.00,12,4,12,0.00
2013-6-6,75.0,68.0,57.7,25.1,16.7,11.2,25,14,11,0.00,0.00,12,4,12,0.08
2013-6-7,75.9,65.6,54.1,30.0,20.3,13.9,36,19,10,0.00,0.00,8,5,8,0.00
2013-6-8,73.2,73.2,73.2,15.6,15.6,15.6,11,11,11,0.00,0.00,21,21,21,0.00
2013-6-9,73.2,73.2,73.2,15.6,15.6,15.6,11,11,11,0.00,0.00,21,21,21,0.00
2013-6-10,73.6,72.7,69.4,16.2,15.5,14.4,12,11,11,0.00,0.00,21,16,21,0.00
2013-6-11,70.0,56.7,48.9,20.7,12.3,8.6,32,17,12,0.00,0.00,12,6,12,0.00
2013-6-12,64.2,61.4,57.7,31.6,21.6,13.2,34,22,16,0.00,0.00,10,1,10,0.04
2013-6-13,63.3,55.7,49.6,35.5,23.2,11.1,58,29,13,0.00,0.00,14,3,14,0.31
2013-6-14,63.0,56.3,50.0,11.8,9.1,7.1,21,15,13,0.00,0.00,31,18,31,0.04
2013-6-15,66.4,57.1,52.0,13.6,10.7,9.6,18,16,13,0.00,0.00,29,16,29,0.00
2013-6-16,68.5,62.9,49.3,21.4,15.2,12.7,33,17,12,0.00,0.00,13,6,13,0.00
2013-6-17,74.7,69.6,52.0,20.7,15.3,12.1,29,13,11,0.00,0.00,19,8,19,0.00
2013-6-18,80.2,73.4,55.4,37.7,18.5,14.6,47,14,10,0.00,0.00,17,6,17,0.00
2013-6-19,69.8,65.3,60.4,41.3,34.9,30.7,42,32,25,0.00,0.00,17,7,17,0.00
2013-6-20,64.9,55.7,50.2,41.3,13.2,7.5,47,19,14,0.00,0.00,15,6,15,0.35
2013-6-21,64.8,60.3,46.0,12.7,10.8,7.7,25,14,13,0.00,0.00,17,8,17,0.00
2013-6-22,64.2,58.0,46.8,28.6,17.4,11.2,49,25,13,0.00,0.00,8,2,13,0.00
2013-6-23,71.1,57.0,48.6,24.9,20.8,12.4,39,28,12,0.00,0.00,8,2,8,0.00
2013-6-24,73.6,66.8,59.0,34.8,20.2,12.1,33,18,11,0.00,0.00,15,6,15,0.00
2013-6-25,71.6,67.4,63.1,27.7,14.6,12.1,26,13,11,0.00,0.00,22,10,22,0.12
2013-6-26,70.5,67.6,64.8,15.5,13.7,12.1,13,12,12,0.00,0.00,18,10,18,0.12
2013-6-27,80.4,75.2,68.0,18.8,16.2,13.5,12,11,10,0.00,0.00,18,9,18,0.00
2013-6-28,79.7,74.5,64.8,27.6,17.9,14.6,23,12,10,0.00,0.00,12,5,12,0.00
2013-7-1,85.6,79.4,67.6,40.5,24.7,16.6,37,15,8,0.00,0.00,17,5,17,0.04
2013-7-2,100.2,95.6,85.6,20.2,18.1,16.1,8,6,5,0.00,0.00,8,3,9,0.00
2013-7-3,88.5,84.2,80.2,29.5,20.6,16.6,14,10,8,0.00,0.00,15,7,15,0.00
2013-7-4,81.5,81.5,81.5,24.0,24.0,24.0,12,12,12,0.00,40.00,6,6,6,0.00
2013-7-8,81.5,61.6,54.1,41.4,34.2,22.0,55,38,12,0.00,0.00,17,5,17,0.79
2013-7-9,81.0,73.3,50.2,32.8,17.5,14.6,50,14,9,0.00,0.00,8,2,8,0.04
2013-7-10,92.8,84.8,68.9,20.9,18.2,14.1,14,9,7,0.00,0.00,11,2,11,0.00
2013-7-11,85.3,80.8,68.2,19.0,17.4,13.4,12,9,8,0.00,0.00,24,12,24,0.00
2013-7-12,79.7,73.3,65.7,18.2,15.6,12.3,13,11,10,0.00,0.00,18,6,18,0.63
2013-7-13,78.4,78.4,78.4,17.4,17.4,17.4,10,10,10,0.00,0.00,8,8,13,0.00
2013-7-15,86.5,76.4,63.5,19.8,16.4,11.8,15,10,8,0.00,0.00,27,8,27,0.04
2013-7-16,71.8,67.3,53.1,24.7,14.8,11.8,33,14,11,0.00,0.00,17,7,17,0.00
2013-7-17,86.0,78.1,53.8,39.9,21.5,15.9,37,14,8,0.00,0.00,13,5,13,0.08
2013-7-18,83.8,81.7,77.7,19.0,18.1,16.6,10,9,9,0.00,0.00,22,10,22,0.00
2013-7-19,84.7,80.7,56.3,24.3,18.3,16.6,28,10,8,0.00,0.00,19,9,19,0.00
2013-7-20,84.0,84.0,84.0,19.2,19.2,19.2,9,9,9,0.00,40.00,11,11,11,0.00
2013-7-22,84.0,84.0,84.0,19.2,19.2,19.2,9,9,9,0.00,40.00,11,11,11,0.00
2013-7-23,84.0,84.0,84.0,19.2,19.2,19.2,9,9,9,0.00,40.00,11,11,11,0.00
2013-7-25,78.4,77.4,76.6,17.4,16.6,15.9,10,10,10,0.00,0.00,20,7,20,0.00
2013-7-26,82.2,74.3,58.5,22.1,17.3,15.2,24,12,9,0.00,0.00,11,4,11,0.00
2013-7-27,82.2,82.2,82.2,17.8,17.8,16.7,9,9,9,0.00,0.00,6,6,8,0.00
2013-7-29,82.2,61.9,51.4,25.4,16.3,10.9,36,18,9,0.00,0.00,12,4,12,0.00
2013-7-30,70.0,67.5,62.2,17.1,14.1,12.1,16,13,12,0.00,0.00,11,4,11,0.00
2013-7-31,80.2,72.1,61.0,26.8,16.8,11.1,27,12,10,0.00,0.00,13,4,13,0.00
2013-8-1,66.9,62.3,56.8,35.7,23.4,11.5,45,24,14,0.00,0.00,11,2,11,0.00
2013-8-2,64.6,54.7,51.6,43.9,35.7,26.0,63,50,23,0.00,0.00,8,3,8,0.71
2013-8-3,51.6,51.6,51.6,33.6,33.6,33.6,50,50,50,0.00,40.00,4,3,4,0.00
2013-8-4,52.5,51.9,51.1,33.6,32.3,31.6,50,47,46,0.00,0.00,0,0,3,0.08
2013-8-5,70.9,67.5,51.1,31.6,16.0,13.5,47,15,12,0.00,0.00,13,9,13,0.00
2013-8-6,78.3,76.0,70.9,17.3,16.2,14.9,12,10,10,0.00,0.00,9,6,9,0.00
2013-8-7,77.5,70.9,60.4,29.4,18.5,14.4,28,14,10,0.00,0.00,11,4,11,0.00
2013-8-8,75.2,67.0,54.3,40.4,26.9,14.9,55,23,10,0.00,0.00,17,7,17,0.00
2013-8-9,67.6,67.6,67.6,28.5,28.5,28.5,23,23,23,0.00,40.00,6,6,11,0.00
2013-8-13,83.5,76.3,66.9,30.6,17.5,14.4,25,11,9,0.00,0.00,29,4,29,0.00
2013-8-14,86.0,78.5,66.4,29.9,17.6,14.4,23,10,8,0.00,0.00,14,2,14,0.00
2013-8-15,95.0,73.3,53.4,31.3,20.2,12.6,34,16,6,0.00,0.00,13,3,13,0.00
2013-8-16,92.7,82.5,64.4,20.4,17.2,12.1,15,9,7,0.00,0.00,11,2,11,0.00
2013-8-17,92.3,73.6,68.7,19.4,15.3,14.1,12,11,7,0.00,0.00,4,1,4,0.00
2013-8-18,68.7,68.7,68.7,14.1,14.1,14.1,12,12,12,0.00,40.00,0,0,0,0.00
2013-8-19,85.3,80.3,68.7,19.0,16.8,14.1,12,9,8,0.00,0.00,17,7,17,0.00
2013-8-20,82.0,79.7,74.8,18.9,17.4,14.9,11,10,9,0.00,0.00,17,8,17,0.00
2013-8-21,81.3,69.7,55.8,17.3,14.6,10.8,20,12,9,0.00,0.00,9,8,9,0.00
2013-8-22,85.1,79.3,49.3,19.2,17.3,14.5,26,10,8,0.00,0.00,6,2,6,0.00
2013-8-23,86.0,78.4,66.7,19.2,17.0,12.5,12,10,8,0.00,0.00,12,2,12,0.00
2013-8-24,74.7,74.7,74.7,16.7,16.7,16.7,11,11,11,0.00,0.00,4,4,4,0.00
2013-8-26,85.6,80.8,62.4,25.2,18.0,16.6,24,10,8,0.00,0.00,10,2,10,0.28
2013-8-27,88.9,84.0,55.0,28.5,18.8,16.6,35,10,8,0.00,0.00,13,4,13,0.00
2013-8-29,92.3,82.7,65.5,29.0,19.5,14.4,24,10,7,0.00,0.00,38,8,38,0.00
2013-8-30,78.4,72.5,57.9,22.7,16.5,14.4,24,12,10,0.00,0.00,27,11,27,0.00
2013-8-31,66.9,66.9,66.9,12.7,12.7,12.7,12,12,12,0.00,40.00,0,0,13,0.00
2013-9-3,80.4,77.5,66.9,18.8,17.1,12.7,12,10,10,0.00,0.00,13,5,13,0.00
2013-9-4,88.3,82.0,65.5,27.0,18.9,16.7,23,10,8,0.00,0.00,6,1,6,0.00
2013-9-5,88.3,80.1,71.2,30.5,20.9,15.2,22,12,8,0.00,0.00,20,6,20,0.00
2013-9-16,84.7,81.0,77.0,19.2,17.7,16.2,10,9,8,0.00,0.00,21,9,21,0.00
2013-9-17,76.8,69.5,65.8,16.2,14.8,13.0,13,12,10,0.00,0.00,10,3,20,0.00
2013-9-18,65.8,45.8,42.3,21.8,13.7,9.5,40,28,13,0.00,0.00,26,17,26,0.00
2013-9-19,65.5,61.7,57.0,13.1,11.3,8.4,15,14,13,0.00,0.00,13,13,17,0.00
2013-9-20,79.2,70.1,45.9,18.0,14.5,5.9,31,12,10,0.00,0.00,0,0,0,0.00
2013-9-21,73.0,56.7,43.7,21.5,13.8,7.5,37,20,11,0.00,0.00,0,0,0,0.00
2013-9-22,59.0,56.9,55.8,9.9,8.8,8.6,15,14,14,0.00,0.00,0,0,0,0.00
2013-9-23,59.5,55.7,48.2,13.1,8.9,7.1,24,15,14,0.00,0.00,0,0,0,0.00
2013-9-24,56.3,54.4,52.5,9.3,8.3,7.1,16,15,15,0.00,0.00,0,0,0,0.00
2013-9-25,46.2,44.5,41.2,26.1,21.5,14.9,51,40,30,0.00,0.00,0,0,0,0.12
2013-9-26,45.1,45.1,45.1,14.0,14.0,14.0,28,28,28,0.00,40.00,0,0,0,0.00
2013-9-27,55.4,50.3,39.9,14.0,4.5,2.5,28,15,13,0.00,0.00,0,0,0,0.00
2013-9-30,48.2,48.2,48.2,4.1,4.1,4.1,16,16,16,0.00,0.00,0,0,0,0.00
2013-10-1,51.6,50.3,45.3,4.0,3.0,-0.0,15,14,14,0.00,0.00,0,0,0,0.00
2013-10-2,54.9,49.2,40.5,4.7,2.5,-0.2,18,14,13,0.00,0.00,0,0,0,0.00
2013-10-3,51.1,39.7,36.3,8.2,1.5,-0.7,30,20,14,0.00,0.00,0,0,0,0.00
2013-10-4,55.4,46.7,27.9,14.6,4.9,0.2,41,19,12,0.00,0.00,0,0,0,0.00
2013-10-7,58.8,54.3,49.6,9.8,5.1,2.4,14,13,13,0.00,0.00,0,0,0,0.00
2013-10-8,58.1,50.5,49.3,4.0,2.8,2.1,14,14,13,0.00,0.00,0,0,0,0.00
2013-10-9,48.6,44.4,36.5,11.5,7.4,4.1,35,22,16,0.00,0.00,0,0,0,0.00
2013-10-10,48.0,47.8,47.7,5.3,5.1,5.0,17,17,17,0.00,0.00,0,0,0,0.00
2013-10-11,49.5,43.2,34.5,20.4,9.6,-0.2,55,27,14,0.00,0.00,0,0,0,0.00
2013-10-12,40.3,40.3,40.3,10.6,10.6,10.6,29,29,29,0.00,40.00,0,0,0,0.00
2013-10-13,43.0,39.8,36.3,18.0,11.9,4.5,43,32,20,0.00,0.00,0,0,0,0.00
2013-10-14,43.0,39.5,37.0,15.5,11.0,4.7,41,32,20,0.00,0.00,0,0,0,0.00
2013-10-15,54.9,53.7,51.8,5.0,4.0,2.5,13,13,13,0.00,0.00,0,0,0,0.00
2013-10-16,51.1,37.6,35.2,25.3,20.3,3.6,60,50,14,0.00,0.00,0,0,0,0.08
2013-10-17,44.6,41.5,35.6,20.3,8.6,1.2,53,27,18,0.00,0.00,0,0,0,0.00
2013-10-18,57.2,48.8,32.0,14.5,8.4,3.7,43,20,12,0.00,0.00,0,0,0,0.00
2013-10-19,50.9,50.9,50.9,6.3,6.3,6.3,16,16,16,0.00,40.00,0,0,0,0.00
2013-10-21,46.4,46.4,46.4,6.4,6.4,6.4,19,19,19,0.00,0.00,0,0,0,0.00
2013-10-23,52.2,51.5,50.9,7.3,6.8,5.9,16,16,16,0.00,0.00,0,0,0,0.00
2013-10-24,63.7,60.0,53.6,12.6,10.6,7.1,15,14,13,0.00,0.00,0,0,0,0.00
2013-10-25,64.2,56.0,43.3,12.6,8.6,-1.4,18,15,13,0.00,0.00,0,0,0,0.00
2013-10-26,65.7,60.5,55.4,13.5,10.9,8.5,15,14,13,0.00,0.00,0,0,0,0.00
2013-10-28,19.4,16.5,14.4,5.5,1.9,-0.9,54,52,50,0.00,0.00,0,0,0,0.00
2013-10-29,23.2,21.1,18.7,9.4,6.7,4.4,55,53,49,0.00,0.00,0,0,0,0.00
2013-10-30,46.6,40.3,28.2,13.9,3.7,-0.1,52,22,17,0.00,0.00,0,0,0,0.00
2013-10-31,49.5,46.8,41.5,5.3,2.1,-1.6,18,15,14,0.00,0.00,0,0,0,0.04
2013-11-1,50.7,46.6,35.4,4.4,1.5,-2.6,22,15,14,0.00,0.00,0,0,0,0.00
2013-11-2,46.8,42.9,39.0,9.5,4.8,0.1,29,22,14,0.00,0.00,0,0,0,0.00
2013-11-4,39.0,26.0,20.7,9.5,2.5,-5.9,54,36,23,0.00,0.00,0,0,0,0.00
2013-11-5,24.3,24.3,24.3,-0.7,-0.7,-0.7,33,33,33,0.00,40.00,0,0,0,0.00
2013-11-6,41.5,31.9,24.3,-0.7,-2.0,-7.3,33,24,16,0.00,0.00,0,0,0,0.00
2013-11-7,45.1,39.9,26.1,10.1,5.5,-8.1,31,24,18,0.00,0.00,0,0,0,0.00
2013-11-8,47.3,44.1,38.3,7.6,-0.3,-3.7,23,15,14,0.00,0.00,0,0,0,0.00
2013-11-9,41.4,38.3,38.3,-0.3,-0.3,-0.3,19,19,19,0.00,0.00,0,0,0,0.00
2013-11-11,29.8,20.6,16.0,17.3,6.5,1.6,59,54,50,0.00,0.00,0,0,0,0.00
2013-11-12,52.0,46.5,42.1,42.9,15.5,1.9,74,35,16,0.00,0.00,0,0,0,0.20
2013-11-13,47.1,43.4,38.1,7.6,3.7,0.0,24,19,17,0.00,0.00,0,0,0,0.00
2013-11-14,44.1,41.9,38.1,4.5,2.1,-0.2,24,19,18,0.00,0.00,0,0,0,0.00
2013-11-15,42.6,38.4,35.1,2.1,-2.7,-4.7,20,17,16,0.00,0.00,0,0,0,0.00
2013-11-16,35.6,35.6,35.6,-2.6,-2.6,-2.6,19,19,19,0.00,40.00,0,0,0,0.00
2013-11-18,45.1,40.7,35.6,2.2,-0.8,-4.7,19,17,15,0.00,0.00,0,0,0,0.00
2013-11-19,35.6,12.4,7.7,-1.8,-11.5,-14.8,34,33,19,0.00,0.00,0,0,0,0.00
2013-11-20,7.7,3.0,-0.4,-14.8,-19.0,-22.0,34,34,34,0.00,0.00,0,0,0,0.00
2013-11-21,32.5,26.9,3.0,-6.2,-10.1,-19.0,34,19,18,0.00,0.00,0,0,0,0.00
2013-11-22,39.2,33.2,24.1,-3.2,-6.7,-12.2,19,17,16,0.00,0.00,0,0,0,0.00
2013-11-23,39.2,39.2,39.2,-3.2,-3.2,-3.2,16,16,16,0.00,40.00,0,0,0,0.00
2013-11-24,46.4,44.8,39.2,0.4,-0.5,-3.2,16,15,14,0.00,0.00,0,0,0,0.00
2013-11-25,46.4,33.2,21.2,6.6,0.1,-4.2,43,25,14,0.00,0.00,0,0,0,0.00
2013-11-26,51.4,42.8,34.3,5.2,1.6,-2.6,23,18,14,0.00,0.00,0,0,0,0.00
2013-11-27,42.4,38.2,35.6,0.2,-2.5,-4.8,19,17,16,0.00,0.00,0,0,0,0.00
2013-11-28,35.8,35.8,35.8,-4.8,-4.8,-4.8,17,17,17,0.00,40.00,0,0,0,0.00
2013-11-29,42.1,40.8,35.8,-0.9,-1.7,-4.8,17,16,16,0.00,0.00,0,0,0,0.00